Links Sitemap Venhuizerweer voor mobiel

AMSTERDAM SCHIPHOL:
Amsterdam Airport Schiphol, Netherlands (EHAM) 52-18N 004-46E -2M
Jul 09, 2020 - 12:55 PM EDT / 2020.07.09 1655 UTC
Wind: from the SW (230 degrees) at 13 MPH (11 KT) (direction variable):0
Visibility: 2 mile(s):0
Sky conditions: mostly cloudy
Weather: drizzle, rain
Temperature: 62 F (17 C)
Dew Point: 60 F (16 C)
Relative Humidity: 93%
Pressure (altimeter): 29.85 in. Hg (1011 hPa)
ob: EHAM 091655Z 23011KT 210V270 3500 DZRA FEW003 SCT006 BKN009 17/16 Q1011 NOSIG
cycle: 17
DEELEN:
Deelen, Netherlands (EHDL) 52-04N 005-53E 52M
Jul 09, 2020 - 12:55 PM EDT / 2020.07.09 1655 UTC
Wind: from the SW (230 degrees) at 8 MPH (7 KT) (direction variable):0
Visibility: 5 mile(s):0
Sky conditions: mostly cloudy
Weather: mist
Temperature: 62 F (17 C)
Dew Point: 62 F (17 C)
Relative Humidity: 100%
Pressure (altimeter): 29.88 in. Hg (1012 hPa)
ob: EHDL 091655Z AUTO 23007KT 190V310 9000 BR SCT006 BKN008 BKN009 17/17 Q1012 YLO
cycle: 17
DE KOOY:
De Kooy, Netherlands (EHKD) 52-55N 004-47E 14M
Jul 09, 2020 - 12:57 PM EDT / 2020.07.09 1657 UTC
Wind: from the NE (050 degrees) at 10 MPH (9 KT) (direction variable):0
Visibility: 2 mile(s):0
Sky conditions: overcast
Weather: drizzle
Temperature: 59 F (15 C)
Dew Point: 57 F (14 C)
Relative Humidity: 93%
Pressure (altimeter): 29.83 in. Hg (1010 hPa)
ob: EHKD 091657Z AUTO 05009KT 360V070 3300 R03/P3000D DZ BKN002 BKN004 OVC006 15/14 Q1010 AMB 05010KT 9999 SCT007 BKN010 OVC015 TEMPO 3000 -DZRA FEW002 SCT003 BKN006
cycle: 17
EELDE:
Groningen Airport Eelde, Netherlands (EHGG) 53-08N 006-35E 4M
Jul 09, 2020 - 12:55 PM EDT / 2020.07.09 1655 UTC
Wind: from the ENE (060 degrees) at 7 MPH (6 KT):0
Visibility: 3 mile(s):0
Sky conditions: mostly cloudy
Weather: drizzle
Temperature: 57 F (14 C)
Dew Point: 57 F (14 C)
Relative Humidity: 100%
Pressure (altimeter): 29.85 in. Hg (1011 hPa)
ob: EHGG 091655Z AUTO 06006KT 5000 DZ FEW002 BKN004 BKN006 14/14 Q1011 TEMPO 3500 -DZ BKN006
cycle: 17
EINDHOVEN:
Eindhoven, Netherlands (EHEH) 51-27N 005-25E 28M
Jul 09, 2020 - 12:55 PM EDT / 2020.07.09 1655 UTC
Wind: from the W (260 degrees) at 10 MPH (9 KT) (direction variable):0
Visibility: greater than 7 mile(s):0
Sky conditions: overcast
Temperature: 69 F (21 C)
Dew Point: 60 F (16 C)
Relative Humidity: 73%
Pressure (altimeter): 29.88 in. Hg (1012 hPa)
ob: EHEH 091655Z AUTO 26009KT 220V300 9999 SCT039 OVC043 21/16 Q1012 BLU 23014KT 9999 SCT022 BKN045 TEMPO FEW012 BKN015 OVC020
cycle: 17
GILZE-RIJEN:
Gilze-Rijen, Netherlands (EHGR) 51-34N 004-56E 24M
Jul 09, 2020 - 12:55 PM EDT / 2020.07.09 1655 UTC
Wind: from the SW (230 degrees) at 9 MPH (8 KT) (direction variable):0
Visibility: 2 mile(s):0
Sky conditions: mostly cloudy
Weather: heavy drizzle
Temperature: 66 F (19 C)
Dew Point: 62 F (17 C)
Relative Humidity: 88%
Pressure (altimeter): 29.88 in. Hg (1012 hPa)
ob: EHGR 091655Z AUTO 23008KT 200V270 3800 +DZ FEW012 SCT014 BKN018 19/17 Q1012 GRN
cycle: 17
LEEUWARDEN:
Leeuwarden, Netherlands (EHLW) 53-13N 005-46E 11M
Jul 09, 2020 - 12:55 PM EDT / 2020.07.09 1655 UTC
Wind: from the E (080 degrees) at 9 MPH (8 KT) (direction variable):0
Visibility: 2 mile(s):0
Sky conditions: mostly cloudy
Weather: drizzle
Temperature: 57 F (14 C)
Dew Point: 55 F (13 C)
Relative Humidity: 93%
Pressure (altimeter): 29.85 in. Hg (1011 hPa)
ob: EHLW 091655Z AUTO 08008KT 350V150 3900 DZ SCT002 SCT004 BKN005 14/13 Q1011 AMB
cycle: 17
MAASTRICHT:
Maastricht Airport Zuid Limburg, Netherlands (EHBK) 50-55N 005-47E 116M
Jul 09, 2020 - 12:55 PM EDT / 2020.07.09 1655 UTC
Wind: from the W (280 degrees) at 6 MPH (5 KT) (direction variable):0
Visibility: greater than 7 mile(s):0
Temperature: 71 F (22 C)
Dew Point: 59 F (15 C)
Relative Humidity: 64%
Pressure (altimeter): 29.88 in. Hg (1012 hPa)
ob: EHBK 091655Z AUTO 28005KT 240V340 9999 NSC 22/15 Q1012 NOSIG
cycle: 17
ROTTERDAM ZESTIENHOVEN:
Rotterdam Airport Zestienhoven, Netherlands (EHRD) 51-57N 004-27E -4M
Jul 09, 2020 - 12:55 PM EDT / 2020.07.09 1655 UTC
Wind: from the SW (230 degrees) at 18 MPH (16 KT) gusting to 30 MPH (26 KT) (direction variable):0
Visibility: greater than 7 mile(s):0
Sky conditions: overcast
Temperature: 64 F (18 C)
Dew Point: 60 F (16 C)
Relative Humidity: 88%
Pressure (altimeter): 29.85 in. Hg (1011 hPa)
ob: EHRD 091655Z AUTO 23016G26KT 190V280 9999 BKN011 BKN013 OVC015 18/16 Q1011 TEMPO 6000 -DZ BKN017
cycle: 17
SOESTERBERG:
Soesterberg, Netherlands (EHSB) 52-08N 005-17E 25M
Nov 20, 2008 - 04:25 AM EST / 2008.11.20 0925 UTC
Wind: from the W (280 degrees) at 16 MPH (14 KT):0
Visibility: greater than 7 mile(s):0
Temperature: 51 F (11 C)
Dew Point: 48 F (9 C)
Relative Humidity: 87%
Pressure (altimeter): 29.83 in. Hg (1010 hPa)
ob: EHSB 200925Z AUTO 28014KT 9999 // 11/09 Q1010
cycle: 9
TWENTE:
Twenthe, Netherlands (EHTW) 52-16N 006-54E 57M
Apr 07, 2008 - 08:25 AM EDT / 2008.04.07 1225 UTC
Wind: from the N (010 degrees) at 7 MPH (6 KT):0
Sky conditions: mostly cloudy
Temperature: 46 F (8 C)
Dew Point: 24 F (-4 C)
Relative Humidity: 42%
Pressure (altimeter): 29.59 in. Hg (1002 hPa)
ob: EHTW 071225Z AUTO 01006KT //// // BKN200/// 08/M04 Q1002 RE//
cycle: 12
VALKENBURG:
Valkenburg, Netherlands (EHVB) 52-11N 004-25E 2M
Apr 01, 2010 - 03:55 AM EDT / 2010.04.01 0755 UTC
Wind: from the WSW (250 degrees) at 20 MPH (17 KT):0
Sky conditions: mostly cloudy
Temperature: 41 F (5 C)
Dew Point: 33 F (1 C)
Relative Humidity: 75%
Pressure (altimeter): 29.62 in. Hg (1003 hPa)
ob: EHVB 010755Z AUTO 25017KT 9999NDV FEW021/// BKN037/// 05/01 Q1003 BLU
cycle: 8
VLIELAND:
Vlieland, Netherlands (EHVL) 53-15N 004-55E 12M
Jul 09, 2020 - 12:59 PM EDT / 2020.07.09 1659 UTC
Wind: from the E (080 degrees) at 16 MPH (14 KT):0
Visibility: 5 mile(s):0
Sky conditions: mostly cloudy
Weather: mist
Temperature: 55 F (13 C)
Dew Point: 55 F (13 C)
Relative Humidity: 100%
Pressure (altimeter): 29.83 in. Hg (1010 hPa)
ob: EHVL 091659Z AUTO 08014KT 9000 BR FEW004 SCT008 BKN010 13/13 Q1010 GRN
cycle: 17
VOLKEL:
Volkel, Netherlands (EHVK) 51-39N 005-42E 21M
Jul 09, 2020 - 12:55 PM EDT / 2020.07.09 1655 UTC
Wind: from the WSW (240 degrees) at 9 MPH (8 KT) (direction variable):0
Visibility: greater than 7 mile(s):0
Sky conditions: overcast
Temperature: 66 F (19 C)
Dew Point: 62 F (17 C)
Relative Humidity: 88%
Pressure (altimeter): 29.85 in. Hg (1011 hPa)
ob: EHVK 091655Z AUTO 24008KT 200V280 9999 FEW015 OVC051 19/17 Q1011 BLU
cycle: 17
WOENSDRECHT:
Woensdrecht, Netherlands (EHWO) 51-27N 004-20E 17M
Jul 09, 2020 - 12:55 PM EDT / 2020.07.09 1655 UTC
Wind: from the SW (230 degrees) at 14 MPH (12 KT):0
Visibility: 2 mile(s):0
Sky conditions: mostly cloudy
Weather: light rain, drizzle
Temperature: 64 F (18 C)
Dew Point: 62 F (17 C)
Relative Humidity: 93%
Pressure (altimeter): 29.88 in. Hg (1012 hPa)
ob: EHWO 091655Z AUTO 23012KT 3400 -RADZ FEW006 SCT007 BKN012 18/17 Q1012 YLO
cycle: 17
Copyright © 2005 - 2020 Venhuizerweer - Alle Rechten Voorbehouden


34.204.191.145